Bayberry, New York
Current Conditions -  °F | °C
As of 10:54 PM on Wednesday 22 Oct 2014 (Local Time) from KSYR Reporting Station
Overcast Overcast  
Wind Chill: 43°   Ceiling: 7500
Heat Index: 47°   Visibility: 10mi
Dew Point: 43°   Wind: 9mph
Humidity: 86%   Direction: 300°WNW
Pressure: 30.09"   Gusts: NA
Location:  43.1489°N, 76.2142°W
Report Text: KSYR 230254Z 30008KT 10SM SCT070 BKN075 OVC080 08/06 A3009 RMK AO2 SLP186 BKN V OVC 60005 T00830061 58012
Loading
Personal Weather Stations






























Interactive Weather Map
Tropical Storm Tracking
New forecast layout! Learn more

10-Day Weather Forecast

Advertisements
Track Severe Weather on mobile